Airfield :
LOGIN :

Register | Disclaimer

   EN    FR    IT 

 










Legend :    VFR   Marginal VFR   IFR   Intensive IFR   Very Intensive IFR
Visi :
Ceiling :
>= 8 km
>= 3000ft
5 to 8 km
1000 to 3000 ft
1500m to 5 km
500 to 1000 ft
800 to 1500m
200 to 500 ft
< 800m
< 200 ft
Symbols :   Thunderstorms  Fog  Heavy snow  Heavy precipitations  Wind > 20 kt
SIGMETs :     Misc.  Thunderstorms  Icing  Turbulence  Mountain Waves  Volcanic Ashes







- Airport Elevation : 495 ft
- IATA code : BUD


LHBP - Budapest Ferihegy

CURRENT METAR :
  • 200330Z 23008KT 9999 SCT049 SCT180 02/M00 Q1013 NOSIG

EXPIRED METARs :
  • 200300Z 24008KT 9999 FEW031 SCT057 02/M00 Q1013 NOSIG
  • 200230Z 24009KT 9999 FEW031 SCT064 02/M00 Q1013 NOSIG
  • 200200Z 24007KT 9999 FEW031 SCT065 02/M00 Q1013 NOSIG
  • 200130Z VRB03KT 9999 FEW031 SCT062 02/M00 Q1014 NOSIG
  • 200100Z 25004KT 9999 FEW039 02/M00 Q1013 NOSIG

TAF TAF LHBP
Valid from the 20 at 00:00 until the 21 at 00:00 UTC


192315Z 2000/2024 27008KT CAVOK
TEMPO 2000/2002 BKN040
BECMG 2004/2006 30012KT
TEMPO 2005/2009 8000 -SN BKN015 OVC040
TEMPO 2008/2013 27015G30KT
BECMG 2011/2013 SCT025 BKN250
TEMPO 2013/2016 BKN020
BECMG 2016/2018 27008KT CAVOK
No reported NOTAMs for that airfield.



MET'MAP, your aeronautical weather chart ! - Copyright ORBIFLY December 2007 - Disclaimer

ORBIFLY MET'MAP TEAM :

Programming & Development : Alexandra Zaïnal
Concept & Development : Baudouin d'Aumeries
Co-Development & Prog : Marc-Olivier Méhu
Technical & hardware support : Manuel Goepfert

Contact : metmap@orbifly.com




SOURCES & CREDITS :

   NOAA